RDU weather

Raleigh Durham International Airport
Raleigh/Durham, North Carolina, United States

Public forecast

Using degrees Fahrenheit for public forecast. Weather courtesy of forecast.io.

METAR (pilot weather report)

Retrieved 2019/03/27 01:51 UTC (11 minutes ago):

KRDU 270151Z 05006KT 10SM CLR 05/M05 A3030 RMK AO2 SLP263 T00501050

TAF (pilot weather forecast)

Forecast is more than 12 hours old.

Retrieved 2019/03/26 00:27 UTC (1 day ago):

TAF KRDU 262325Z 2700/2724 04006KT P6SM SKC FM271400 04009KT P6SM SKC FM272200 07006KT P6SM SKC